sensor_id;sensor_type;location;lat;lon;timestamp;P1;durP1;ratioP1;P2;durP2;ratioP2
60060;SDS011;45933;51.336;12.612;2022-07-09T00:00:22;3.08;;;2.60;;
60060;SDS011;45933;51.336;12.612;2022-07-09T00:02:47;4.75;;;2.90;;
60060;SDS011;45933;51.336;12.612;2022-07-09T00:05:12;4.53;;;2.78;;
60060;SDS011;45933;51.336;12.612;2022-07-09T00:07:38;4.78;;;2.75;;
60060;SDS011;45933;51.336;12.612;2022-07-09T00:10:04;4.63;;;3.03;;
60060;SDS011;45933;51.336;12.612;2022-07-09T00:12:30;4.80;;;3.00;;
60060;SDS011;45933;51.336;12.612;2022-07-09T00:14:55;3.42;;;2.72;;
60060;SDS011;45933;51.336;12.612;2022-07-09T00:17:21;5.18;;;2.80;;
60060;SDS011;45933;51.336;12.612;2022-07-09T00:19:46;2.70;;;2.20;;
60060;SDS011;45933;51.336;12.612;2022-07-09T00:22:12;4.43;;;2.70;;
60060;SDS011;45933;51.336;12.612;2022-07-09T00:24:37;4.53;;;2.45;;
60060;SDS011;45933;51.336;12.612;2022-07-09T00:27:02;5.25;;;2.95;;
60060;SDS011;45933;51.336;12.612;2022-07-09T00:29:28;6.90;;;3.10;;
60060;SDS011;45933;51.336;12.612;2022-07-09T00:31:53;2.78;;;2.15;;
60060;SDS011;45933;51.336;12.612;2022-07-09T00:34:19;4.68;;;2.33;;
60060;SDS011;45933;51.336;12.612;2022-07-09T00:36:44;4.07;;;2.30;;
60060;SDS011;45933;51.336;12.612;2022-07-09T00:39:09;3.15;;;2.00;;
60060;SDS011;45933;51.336;12.612;2022-07-09T00:41:35;3.70;;;2.28;;
60060;SDS011;45933;51.336;12.612;2022-07-09T00:44:00;3.72;;;2.33;;
60060;SDS011;45933;51.336;12.612;2022-07-09T00:46:26;5.30;;;2.30;;
60060;SDS011;45933;51.336;12.612;2022-07-09T00:48:51;4.35;;;2.25;;
60060;SDS011;45933;51.336;12.612;2022-07-09T00:51:17;3.67;;;2.13;;
60060;SDS011;45933;51.336;12.612;2022-07-09T00:53:43;3.38;;;2.10;;
60060;SDS011;45933;51.336;12.612;2022-07-09T00:56:10;3.35;;;1.90;;
60060;SDS011;45933;51.336;12.612;2022-07-09T00:58:36;2.47;;;2.17;;
60060;SDS011;45933;51.336;12.612;2022-07-09T01:01:03;2.65;;;1.92;;
60060;SDS011;45933;51.336;12.612;2022-07-09T01:03:28;4.60;;;2.30;;
60060;SDS011;45933;51.336;12.612;2022-07-09T01:05:54;4.07;;;2.40;;
60060;SDS011;45933;51.336;12.612;2022-07-09T01:08:21;4.90;;;2.40;;
60060;SDS011;45933;51.336;12.612;2022-07-09T01:10:47;4.88;;;2.92;;
60060;SDS011;45933;51.336;12.612;2022-07-09T01:13:16;2.70;;;2.20;;
60060;SDS011;45933;51.336;12.612;2022-07-09T01:15:41;4.05;;;2.30;;
60060;SDS011;45933;51.336;12.612;2022-07-09T01:18:09;2.28;;;2.08;;
60060;SDS011;45933;51.336;12.612;2022-07-09T01:20:36;6.15;;;2.35;;
60060;SDS011;45933;51.336;12.612;2022-07-09T01:23:01;3.33;;;2.20;;
60060;SDS011;45933;51.336;12.612;2022-07-09T01:25:40;5.70;;;2.38;;
60060;SDS011;45933;51.336;12.612;2022-07-09T01:28:09;4.32;;;2.08;;
60060;SDS011;45933;51.336;12.612;2022-07-09T01:30:35;3.95;;;2.33;;
60060;SDS011;45933;51.336;12.612;2022-07-09T01:33:04;3.42;;;2.50;;
60060;SDS011;45933;51.336;12.612;2022-07-09T01:35:30;4.50;;;2.45;;
60060;SDS011;45933;51.336;12.612;2022-07-09T01:37:55;2.55;;;2.30;;
60060;SDS011;45933;51.336;12.612;2022-07-09T01:40:22;4.55;;;2.60;;
60060;SDS011;45933;51.336;12.612;2022-07-09T01:42:47;3.10;;;2.25;;
60060;SDS011;45933;51.336;12.612;2022-07-09T01:45:13;3.67;;;2.55;;
60060;SDS011;45933;51.336;12.612;2022-07-09T01:47:40;4.78;;;2.60;;
60060;SDS011;45933;51.336;12.612;2022-07-09T01:50:06;5.80;;;2.67;;
60060;SDS011;45933;51.336;12.612;2022-07-09T01:52:32;4.45;;;2.60;;
60060;SDS011;45933;51.336;12.612;2022-07-09T01:54:58;5.90;;;2.60;;
60060;SDS011;45933;51.336;12.612;2022-07-09T01:57:24;3.95;;;2.55;;
60060;SDS011;45933;51.336;12.612;2022-07-09T01:59:49;5.22;;;2.60;;
60060;SDS011;45933;51.336;12.612;2022-07-09T02:02:14;4.15;;;2.42;;
60060;SDS011;45933;51.336;12.612;2022-07-09T02:04:40;5.90;;;2.95;;
60060;SDS011;45933;51.336;12.612;2022-07-09T02:07:05;3.92;;;2.13;;
60060;SDS011;45933;51.336;12.612;2022-07-09T02:09:30;4.22;;;2.55;;
60060;SDS011;45933;51.336;12.612;2022-07-09T02:11:56;2.53;;;2.17;;
60060;SDS011;45933;51.336;12.612;2022-07-09T02:14:21;3.10;;;2.30;;
60060;SDS011;45933;51.336;12.612;2022-07-09T02:16:47;4.50;;;2.47;;
60060;SDS011;45933;51.336;12.612;2022-07-09T02:19:13;7.45;;;2.35;;
60060;SDS011;45933;51.336;12.612;2022-07-09T02:21:39;2.90;;;2.15;;
60060;SDS011;45933;51.336;12.612;2022-07-09T02:24:05;3.10;;;2.47;;
60060;SDS011;45933;51.336;12.612;2022-07-09T02:26:30;4.38;;;2.28;;
60060;SDS011;45933;51.336;12.612;2022-07-09T02:28:56;5.35;;;2.60;;
60060;SDS011;45933;51.336;12.612;2022-07-09T02:31:21;3.30;;;2.20;;
60060;SDS011;45933;51.336;12.612;2022-07-09T02:33:47;4.30;;;2.92;;
60060;SDS011;45933;51.336;12.612;2022-07-09T02:36:12;3.75;;;2.38;;
60060;SDS011;45933;51.336;12.612;2022-07-09T02:38:38;3.92;;;2.47;;
60060;SDS011;45933;51.336;12.612;2022-07-09T02:41:04;6.47;;;2.47;;
60060;SDS011;45933;51.336;12.612;2022-07-09T02:43:29;3.45;;;2.40;;
60060;SDS011;45933;51.336;12.612;2022-07-09T02:45:55;3.33;;;2.40;;
60060;SDS011;45933;51.336;12.612;2022-07-09T02:48:21;3.17;;;2.28;;
60060;SDS011;45933;51.336;12.612;2022-07-09T02:50:47;3.50;;;2.05;;
60060;SDS011;45933;51.336;12.612;2022-07-09T02:53:14;3.95;;;1.90;;
60060;SDS011;45933;51.336;12.612;2022-07-09T02:55:40;4.07;;;2.28;;
60060;SDS011;45933;51.336;12.612;2022-07-09T02:58:05;4.05;;;2.70;;
60060;SDS011;45933;51.336;12.612;2022-07-09T03:00:31;5.65;;;2.40;;
60060;SDS011;45933;51.336;12.612;2022-07-09T03:02:56;3.70;;;1.92;;
60060;SDS011;45933;51.336;12.612;2022-07-09T03:05:22;3.50;;;2.22;;
60060;SDS011;45933;51.336;12.612;2022-07-09T03:07:47;3.40;;;2.13;;
60060;SDS011;45933;51.336;12.612;2022-07-09T03:10:12;6.25;;;2.60;;
60060;SDS011;45933;51.336;12.612;2022-07-09T03:12:38;4.82;;;2.38;;
60060;SDS011;45933;51.336;12.612;2022-07-09T03:15:05;3.63;;;2.47;;
60060;SDS011;45933;51.336;12.612;2022-07-09T03:17:31;6.13;;;2.38;;
60060;SDS011;45933;51.336;12.612;2022-07-09T03:19:57;5.57;;;2.80;;
60060;SDS011;45933;51.336;12.612;2022-07-09T03:22:22;4.03;;;2.20;;
60060;SDS011;45933;51.336;12.612;2022-07-09T03:24:47;3.20;;;2.58;;
60060;SDS011;45933;51.336;12.612;2022-07-09T03:27:13;3.15;;;2.40;;
60060;SDS011;45933;51.336;12.612;2022-07-09T03:29:38;4.43;;;2.33;;
60060;SDS011;45933;51.336;12.612;2022-07-09T03:32:03;4.60;;;2.70;;
60060;SDS011;45933;51.336;12.612;2022-07-09T03:34:29;3.47;;;2.30;;
60060;SDS011;45933;51.336;12.612;2022-07-09T03:36:55;3.80;;;2.40;;
60060;SDS011;45933;51.336;12.612;2022-07-09T03:39:20;3.92;;;2.40;;
60060;SDS011;45933;51.336;12.612;2022-07-09T03:41:46;4.57;;;2.88;;
60060;SDS011;45933;51.336;12.612;2022-07-09T03:44:12;3.80;;;2.63;;
60060;SDS011;45933;51.336;12.612;2022-07-09T03:46:37;4.00;;;3.00;;
60060;SDS011;45933;51.336;12.612;2022-07-09T03:49:03;8.93;;;2.75;;
60060;SDS011;45933;51.336;12.612;2022-07-09T03:51:28;3.55;;;2.55;;
60060;SDS011;45933;51.336;12.612;2022-07-09T03:53:54;4.38;;;2.92;;
60060;SDS011;45933;51.336;12.612;2022-07-09T03:56:19;3.25;;;2.63;;
60060;SDS011;45933;51.336;12.612;2022-07-09T03:58:47;5.32;;;2.70;;
60060;SDS011;45933;51.336;12.612;2022-07-09T04:01:13;3.50;;;2.80;;
60060;SDS011;45933;51.336;12.612;2022-07-09T04:03:38;4.20;;;2.95;;
60060;SDS011;45933;51.336;12.612;2022-07-09T04:06:04;4.72;;;2.45;;
60060;SDS011;45933;51.336;12.612;2022-07-09T04:08:30;3.78;;;2.78;;
60060;SDS011;45933;51.336;12.612;2022-07-09T04:10:55;7.65;;;2.72;;
60060;SDS011;45933;51.336;12.612;2022-07-09T04:13:21;3.58;;;2.63;;
60060;SDS011;45933;51.336;12.612;2022-07-09T04:15:46;4.68;;;2.53;;
60060;SDS011;45933;51.336;12.612;2022-07-09T04:18:13;5.90;;;2.80;;
60060;SDS011;45933;51.336;12.612;2022-07-09T04:20:40;7.65;;;2.78;;
60060;SDS011;45933;51.336;12.612;2022-07-09T04:23:06;3.15;;;2.28;;
60060;SDS011;45933;51.336;12.612;2022-07-09T04:25:31;4.05;;;2.58;;
60060;SDS011;45933;51.336;12.612;2022-07-09T04:27:56;5.07;;;2.35;;
60060;SDS011;45933;51.336;12.612;2022-07-09T04:30:24;3.78;;;2.50;;
60060;SDS011;45933;51.336;12.612;2022-07-09T04:32:55;4.70;;;2.50;;
60060;SDS011;45933;51.336;12.612;2022-07-09T04:35:20;4.85;;;2.50;;
60060;SDS011;45933;51.336;12.612;2022-07-09T04:37:45;4.75;;;3.05;;
60060;SDS011;45933;51.336;12.612;2022-07-09T04:40:11;5.35;;;3.20;;
60060;SDS011;45933;51.336;12.612;2022-07-09T04:42:37;3.88;;;2.50;;
60060;SDS011;45933;51.336;12.612;2022-07-09T04:45:02;3.10;;;2.50;;
60060;SDS011;45933;51.336;12.612;2022-07-09T04:47:28;7.70;;;2.53;;
60060;SDS011;45933;51.336;12.612;2022-07-09T04:49:54;5.20;;;2.45;;
60060;SDS011;45933;51.336;12.612;2022-07-09T04:52:19;7.22;;;2.53;;
60060;SDS011;45933;51.336;12.612;2022-07-09T04:54:45;3.17;;;2.35;;
60060;SDS011;45933;51.336;12.612;2022-07-09T04:57:11;5.72;;;2.65;;
60060;SDS011;45933;51.336;12.612;2022-07-09T04:59:36;4.57;;;2.78;;
60060;SDS011;45933;51.336;12.612;2022-07-09T05:02:02;6.97;;;2.60;;
60060;SDS011;45933;51.336;12.612;2022-07-09T05:04:28;7.25;;;2.85;;
60060;SDS011;45933;51.336;12.612;2022-07-09T05:06:53;5.57;;;3.13;;
60060;SDS011;45933;51.336;12.612;2022-07-09T05:09:18;5.13;;;3.38;;
60060;SDS011;45933;51.336;12.612;2022-07-09T05:11:44;8.05;;;3.53;;
60060;SDS011;45933;51.336;12.612;2022-07-09T05:14:09;5.13;;;3.25;;
60060;SDS011;45933;51.336;12.612;2022-07-09T05:16:35;7.07;;;3.67;;
60060;SDS011;45933;51.336;12.612;2022-07-09T05:19:00;8.10;;;3.20;;
60060;SDS011;45933;51.336;12.612;2022-07-09T05:21:26;8.48;;;3.50;;
60060;SDS011;45933;51.336;12.612;2022-07-09T05:23:51;4.55;;;2.90;;
60060;SDS011;45933;51.336;12.612;2022-07-09T05:26:16;5.85;;;3.35;;
60060;SDS011;45933;51.336;12.612;2022-07-09T05:28:42;11.10;;;3.30;;
60060;SDS011;45933;51.336;12.612;2022-07-09T05:31:07;6.22;;;3.10;;
60060;SDS011;45933;51.336;12.612;2022-07-09T05:33:33;7.55;;;3.05;;
60060;SDS011;45933;51.336;12.612;2022-07-09T05:35:58;7.80;;;2.97;;
60060;SDS011;45933;51.336;12.612;2022-07-09T05:38:23;11.93;;;3.58;;
60060;SDS011;45933;51.336;12.612;2022-07-09T05:40:49;9.63;;;3.35;;
60060;SDS011;45933;51.336;12.612;2022-07-09T05:43:15;13.20;;;4.07;;
60060;SDS011;45933;51.336;12.612;2022-07-09T05:45:41;6.05;;;4.05;;
60060;SDS011;45933;51.336;12.612;2022-07-09T05:48:06;4.68;;;3.80;;
60060;SDS011;45933;51.336;12.612;2022-07-09T05:50:32;6.65;;;4.03;;
60060;SDS011;45933;51.336;12.612;2022-07-09T05:52:57;6.50;;;3.80;;
60060;SDS011;45933;51.336;12.612;2022-07-09T05:55:22;8.82;;;4.15;;
60060;SDS011;45933;51.336;12.612;2022-07-09T05:57:48;7.30;;;3.78;;
60060;SDS011;45933;51.336;12.612;2022-07-09T06:00:13;7.43;;;3.85;;
60060;SDS011;45933;51.336;12.612;2022-07-09T06:02:39;6.75;;;3.60;;
60060;SDS011;45933;51.336;12.612;2022-07-09T06:05:04;7.85;;;3.90;;
60060;SDS011;45933;51.336;12.612;2022-07-09T06:07:30;6.80;;;3.30;;
60060;SDS011;45933;51.336;12.612;2022-07-09T06:09:55;4.45;;;3.38;;
60060;SDS011;45933;51.336;12.612;2022-07-09T06:12:20;5.80;;;3.35;;
60060;SDS011;45933;51.336;12.612;2022-07-09T06:14:46;5.85;;;3.47;;
60060;SDS011;45933;51.336;12.612;2022-07-09T06:17:11;5.72;;;3.20;;
60060;SDS011;45933;51.336;12.612;2022-07-09T06:19:37;5.25;;;2.95;;
60060;SDS011;45933;51.336;12.612;2022-07-09T06:22:02;7.07;;;3.30;;
60060;SDS011;45933;51.336;12.612;2022-07-09T06:24:28;16.80;;;3.25;;
60060;SDS011;45933;51.336;12.612;2022-07-09T06:26:54;5.38;;;2.50;;
60060;SDS011;45933;51.336;12.612;2022-07-09T06:29:20;5.55;;;3.28;;
60060;SDS011;45933;51.336;12.612;2022-07-09T06:31:46;6.38;;;3.92;;
60060;SDS011;45933;51.336;12.612;2022-07-09T06:34:11;6.00;;;3.20;;
60060;SDS011;45933;51.336;12.612;2022-07-09T06:36:37;6.50;;;3.10;;
60060;SDS011;45933;51.336;12.612;2022-07-09T06:39:03;8.10;;;3.03;;
60060;SDS011;45933;51.336;12.612;2022-07-09T06:41:47;8.35;;;2.95;;
60060;SDS011;45933;51.336;12.612;2022-07-09T06:44:12;6.90;;;3.00;;
60060;SDS011;45933;51.336;12.612;2022-07-09T06:46:38;5.65;;;3.08;;
60060;SDS011;45933;51.336;12.612;2022-07-09T06:49:03;5.32;;;3.20;;
60060;SDS011;45933;51.336;12.612;2022-07-09T06:51:29;8.82;;;3.20;;
60060;SDS011;45933;51.336;12.612;2022-07-09T06:53:55;5.97;;;2.92;;
60060;SDS011;45933;51.336;12.612;2022-07-09T06:56:20;6.80;;;3.15;;
60060;SDS011;45933;51.336;12.612;2022-07-09T06:58:46;6.07;;;3.33;;
60060;SDS011;45933;51.336;12.612;2022-07-09T07:01:11;5.70;;;2.83;;
60060;SDS011;45933;51.336;12.612;2022-07-09T07:03:37;5.60;;;3.22;;
60060;SDS011;45933;51.336;12.612;2022-07-09T07:06:02;6.93;;;3.70;;
60060;SDS011;45933;51.336;12.612;2022-07-09T07:08:27;7.95;;;3.53;;
60060;SDS011;45933;51.336;12.612;2022-07-09T07:10:53;7.70;;;3.50;;
60060;SDS011;45933;51.336;12.612;2022-07-09T07:13:18;5.78;;;3.03;;
60060;SDS011;45933;51.336;12.612;2022-07-09T07:15:43;4.78;;;3.30;;
60060;SDS011;45933;51.336;12.612;2022-07-09T07:18:10;4.82;;;3.20;;
60060;SDS011;45933;51.336;12.612;2022-07-09T07:20:35;8.00;;;3.72;;
60060;SDS011;45933;51.336;12.612;2022-07-09T07:23:01;4.60;;;3.17;;
60060;SDS011;45933;51.336;12.612;2022-07-09T07:25:26;10.52;;;3.92;;
60060;SDS011;45933;51.336;12.612;2022-07-09T07:27:51;7.15;;;3.60;;
60060;SDS011;45933;51.336;12.612;2022-07-09T07:30:17;5.30;;;3.00;;
60060;SDS011;45933;51.336;12.612;2022-07-09T07:32:42;6.57;;;3.38;;
60060;SDS011;45933;51.336;12.612;2022-07-09T07:35:08;5.63;;;3.17;;
60060;SDS011;45933;51.336;12.612;2022-07-09T07:37:33;6.97;;;3.70;;
60060;SDS011;45933;51.336;12.612;2022-07-09T07:39:59;9.82;;;3.70;;
60060;SDS011;45933;51.336;12.612;2022-07-09T07:42:24;6.28;;;3.53;;
60060;SDS011;45933;51.336;12.612;2022-07-09T07:44:50;6.40;;;3.80;;
60060;SDS011;45933;51.336;12.612;2022-07-09T07:47:15;8.45;;;4.38;;
60060;SDS011;45933;51.336;12.612;2022-07-09T07:49:41;8.13;;;3.88;;
60060;SDS011;45933;51.336;12.612;2022-07-09T07:52:06;7.50;;;3.97;;
60060;SDS011;45933;51.336;12.612;2022-07-09T07:54:31;8.38;;;4.78;;
60060;SDS011;45933;51.336;12.612;2022-07-09T07:56:58;7.32;;;3.50;;
60060;SDS011;45933;51.336;12.612;2022-07-09T07:59:23;7.70;;;4.00;;
60060;SDS011;45933;51.336;12.612;2022-07-09T08:01:49;6.57;;;4.20;;
60060;SDS011;45933;51.336;12.612;2022-07-09T08:04:14;5.55;;;3.65;;
60060;SDS011;45933;51.336;12.612;2022-07-09T08:06:40;7.40;;;3.97;;
60060;SDS011;45933;51.336;12.612;2022-07-09T08:09:05;5.68;;;3.70;;
60060;SDS011;45933;51.336;12.612;2022-07-09T08:11:30;10.38;;;4.13;;
60060;SDS011;45933;51.336;12.612;2022-07-09T08:13:56;5.63;;;4.13;;
60060;SDS011;45933;51.336;12.612;2022-07-09T08:16:21;6.47;;;3.50;;
60060;SDS011;45933;51.336;12.612;2022-07-09T08:18:47;5.18;;;3.85;;
60060;SDS011;45933;51.336;12.612;2022-07-09T08:21:13;6.72;;;4.30;;
60060;SDS011;45933;51.336;12.612;2022-07-09T08:23:38;5.28;;;3.67;;
60060;SDS011;45933;51.336;12.612;2022-07-09T08:26:28;5.32;;;3.92;;
60060;SDS011;45933;51.336;12.612;2022-07-09T08:28:54;6.90;;;3.95;;
60060;SDS011;45933;51.336;12.612;2022-07-09T08:31:20;6.63;;;3.55;;
60060;SDS011;45933;51.336;12.612;2022-07-09T08:33:46;8.05;;;3.70;;
60060;SDS011;45933;51.336;12.612;2022-07-09T08:36:12;5.28;;;3.13;;
60060;SDS011;45933;51.336;12.612;2022-07-09T08:38:37;7.20;;;3.72;;
60060;SDS011;45933;51.336;12.612;2022-07-09T08:41:04;7.35;;;3.60;;
60060;SDS011;45933;51.336;12.612;2022-07-09T08:43:34;6.50;;;3.60;;
60060;SDS011;45933;51.336;12.612;2022-07-09T08:46:03;5.22;;;3.00;;
60060;SDS011;45933;51.336;12.612;2022-07-09T08:48:33;4.93;;;3.50;;
60060;SDS011;45933;51.336;12.612;2022-07-09T08:50:59;7.55;;;3.50;;
60060;SDS011;45933;51.336;12.612;2022-07-09T08:53:25;4.00;;;3.20;;
60060;SDS011;45933;51.336;12.612;2022-07-09T08:55:53;5.30;;;3.75;;
60060;SDS011;45933;51.336;12.612;2022-07-09T08:58:19;7.00;;;4.05;;
60060;SDS011;45933;51.336;12.612;2022-07-09T09:00:44;8.65;;;3.90;;
60060;SDS011;45933;51.336;12.612;2022-07-09T09:03:12;8.02;;;3.78;;
60060;SDS011;45933;51.336;12.612;2022-07-09T09:05:38;5.55;;;3.30;;
60060;SDS011;45933;51.336;12.612;2022-07-09T09:08:16;8.05;;;4.30;;
60060;SDS011;45933;51.336;12.612;2022-07-09T09:10:45;7.80;;;4.38;;
60060;SDS011;45933;51.336;12.612;2022-07-09T09:13:13;15.18;;;4.93;;
60060;SDS011;45933;51.336;12.612;2022-07-09T09:15:43;14.10;;;5.57;;
60060;SDS011;45933;51.336;12.612;2022-07-09T09:18:09;7.60;;;5.20;;
60060;SDS011;45933;51.336;12.612;2022-07-09T09:20:35;8.43;;;4.55;;
60060;SDS011;45933;51.336;12.612;2022-07-09T09:23:01;5.30;;;4.60;;
60060;SDS011;45933;51.336;12.612;2022-07-09T09:25:29;12.40;;;5.50;;
60060;SDS011;45933;51.336;12.612;2022-07-09T09:27:58;9.27;;;5.28;;
60060;SDS011;45933;51.336;12.612;2022-07-09T09:30:26;6.60;;;4.45;;
60060;SDS011;45933;51.336;12.612;2022-07-09T09:33:00;6.57;;;4.40;;
60060;SDS011;45933;51.336;12.612;2022-07-09T09:35:41;8.63;;;4.80;;
60060;SDS011;45933;51.336;12.612;2022-07-09T09:38:08;5.90;;;5.15;;
60060;SDS011;45933;51.336;12.612;2022-07-09T09:40:35;6.50;;;5.28;;
60060;SDS011;45933;51.336;12.612;2022-07-09T09:43:01;6.53;;;4.97;;
60060;SDS011;45933;51.336;12.612;2022-07-09T09:45:27;6.93;;;4.30;;
60060;SDS011;45933;51.336;12.612;2022-07-09T09:47:53;6.13;;;4.38;;
60060;SDS011;45933;51.336;12.612;2022-07-09T09:50:20;5.28;;;3.85;;
60060;SDS011;45933;51.336;12.612;2022-07-09T09:52:48;6.38;;;4.28;;
60060;SDS011;45933;51.336;12.612;2022-07-09T09:55:15;6.25;;;3.90;;
60060;SDS011;45933;51.336;12.612;2022-07-09T09:57:42;4.65;;;3.35;;
60060;SDS011;45933;51.336;12.612;2022-07-09T10:00:10;5.13;;;3.85;;
60060;SDS011;45933;51.336;12.612;2022-07-09T10:02:35;5.50;;;3.28;;
60060;SDS011;45933;51.336;12.612;2022-07-09T10:05:04;4.88;;;3.35;;
60060;SDS011;45933;51.336;12.612;2022-07-09T10:07:29;3.78;;;3.35;;
60060;SDS011;45933;51.336;12.612;2022-07-09T10:09:57;4.35;;;3.30;;
60060;SDS011;45933;51.336;12.612;2022-07-09T10:12:27;4.18;;;3.60;;
60060;SDS011;45933;51.336;12.612;2022-07-09T10:14:54;4.80;;;3.50;;
60060;SDS011;45933;51.336;12.612;2022-07-09T10:17:19;4.90;;;3.20;;
60060;SDS011;45933;51.336;12.612;2022-07-09T10:22:22;3.42;;;2.90;;
60060;SDS011;45933;51.336;12.612;2022-07-09T10:24:58;5.45;;;3.08;;
60060;SDS011;45933;51.336;12.612;2022-07-09T10:27:24;4.03;;;3.08;;
60060;SDS011;45933;51.336;12.612;2022-07-09T10:29:59;4.70;;;2.72;;
60060;SDS011;45933;51.336;12.612;2022-07-09T10:32:29;3.60;;;2.50;;
60060;SDS011;45933;51.336;12.612;2022-07-09T10:34:59;2.88;;;2.10;;
60060;SDS011;45933;51.336;12.612;2022-07-09T10:42:42;3.55;;;2.50;;
60060;SDS011;45933;51.336;12.612;2022-07-09T10:47:43;5.03;;;2.22;;
60060;SDS011;45933;51.336;12.612;2022-07-09T10:50:12;3.60;;;2.13;;
60060;SDS011;45933;51.336;12.612;2022-07-09T10:52:37;2.80;;;2.40;;
60060;SDS011;45933;51.336;12.612;2022-07-09T10:55:03;3.55;;;2.00;;
60060;SDS011;45933;51.336;12.612;2022-07-09T10:57:29;2.97;;;2.30;;
60060;SDS011;45933;51.336;12.612;2022-07-09T10:59:54;3.15;;;2.03;;
60060;SDS011;45933;51.336;12.612;2022-07-09T11:02:23;2.85;;;1.88;;
60060;SDS011;45933;51.336;12.612;2022-07-09T11:04:49;2.67;;;1.90;;
60060;SDS011;45933;51.336;12.612;2022-07-09T11:07:21;2.85;;;1.95;;
60060;SDS011;45933;51.336;12.612;2022-07-09T11:09:50;3.80;;;2.20;;
60060;SDS011;45933;51.336;12.612;2022-07-09T11:12:20;2.97;;;1.98;;
60060;SDS011;45933;51.336;12.612;2022-07-09T11:14:47;4.50;;;2.35;;
60060;SDS011;45933;51.336;12.612;2022-07-09T11:17:15;2.33;;;2.05;;
60060;SDS011;45933;51.336;12.612;2022-07-09T11:19:41;5.45;;;2.40;;
60060;SDS011;45933;51.336;12.612;2022-07-09T11:22:07;3.15;;;2.17;;
60060;SDS011;45933;51.336;12.612;2022-07-09T11:24:32;2.63;;;2.08;;
60060;SDS011;45933;51.336;12.612;2022-07-09T11:27:04;3.15;;;1.80;;
60060;SDS011;45933;51.336;12.612;2022-07-09T11:29:31;3.67;;;2.40;;
60060;SDS011;45933;51.336;12.612;2022-07-09T11:31:56;2.75;;;2.00;;
60060;SDS011;45933;51.336;12.612;2022-07-09T11:34:22;2.65;;;1.95;;
60060;SDS011;45933;51.336;12.612;2022-07-09T11:36:52;2.35;;;2.10;;
60060;SDS011;45933;51.336;12.612;2022-07-09T11:39:28;2.42;;;1.88;;
60060;SDS011;45933;51.336;12.612;2022-07-09T11:41:55;3.08;;;2.00;;
60060;SDS011;45933;51.336;12.612;2022-07-09T11:44:23;2.15;;;1.95;;
60060;SDS011;45933;51.336;12.612;2022-07-09T11:47:00;2.15;;;1.88;;
60060;SDS011;45933;51.336;12.612;2022-07-09T11:49:36;4.22;;;1.77;;
60060;SDS011;45933;51.336;12.612;2022-07-09T11:52:03;3.63;;;1.88;;
60060;SDS011;45933;51.336;12.612;2022-07-09T11:55:03;2.60;;;1.70;;
60060;SDS011;45933;51.336;12.612;2022-07-09T11:57:33;1.98;;;1.77;;
60060;SDS011;45933;51.336;12.612;2022-07-09T12:00:00;2.03;;;1.60;;
60060;SDS011;45933;51.336;12.612;2022-07-09T12:02:32;2.90;;;1.90;;
60060;SDS011;45933;51.336;12.612;2022-07-09T12:04:59;4.07;;;1.80;;
60060;SDS011;45933;51.336;12.612;2022-07-09T12:07:26;2.20;;;1.60;;
60060;SDS011;45933;51.336;12.612;2022-07-09T12:10:10;1.92;;;1.73;;
60060;SDS011;45933;51.336;12.612;2022-07-09T12:12:36;1.70;;;1.60;;
60060;SDS011;45933;51.336;12.612;2022-07-09T12:15:03;2.63;;;1.67;;
60060;SDS011;45933;51.336;12.612;2022-07-09T12:17:30;2.65;;;1.75;;
60060;SDS011;45933;51.336;12.612;2022-07-09T12:19:56;4.32;;;2.30;;
60060;SDS011;45933;51.336;12.612;2022-07-09T12:22:23;2.67;;;2.30;;
60060;SDS011;45933;51.336;12.612;2022-07-09T12:24:49;5.88;;;4.00;;
60060;SDS011;45933;51.336;12.612;2022-07-09T12:27:16;6.63;;;3.67;;
60060;SDS011;45933;51.336;12.612;2022-07-09T12:29:41;5.82;;;3.45;;
60060;SDS011;45933;51.336;12.612;2022-07-09T12:32:07;3.30;;;2.60;;
60060;SDS011;45933;51.336;12.612;2022-07-09T12:34:32;3.70;;;2.58;;
60060;SDS011;45933;51.336;12.612;2022-07-09T12:36:58;3.58;;;2.63;;
60060;SDS011;45933;51.336;12.612;2022-07-09T12:39:24;4.70;;;2.47;;
60060;SDS011;45933;51.336;12.612;2022-07-09T12:41:49;3.67;;;2.75;;
60060;SDS011;45933;51.336;12.612;2022-07-09T12:44:15;5.80;;;2.15;;
60060;SDS011;45933;51.336;12.612;2022-07-09T12:46:40;2.03;;;1.83;;
60060;SDS011;45933;51.336;12.612;2022-07-09T12:49:06;2.13;;;1.90;;
60060;SDS011;45933;51.336;12.612;2022-07-09T12:51:32;4.05;;;2.13;;
60060;SDS011;45933;51.336;12.612;2022-07-09T12:53:57;2.25;;;2.03;;
60060;SDS011;45933;51.336;12.612;2022-07-09T12:56:22;4.32;;;3.35;;
60060;SDS011;45933;51.336;12.612;2022-07-09T12:58:48;3.10;;;2.60;;
60060;SDS011;45933;51.336;12.612;2022-07-09T13:01:13;3.25;;;2.17;;
60060;SDS011;45933;51.336;12.612;2022-07-09T13:03:38;2.75;;;1.90;;
60060;SDS011;45933;51.336;12.612;2022-07-09T13:06:04;2.92;;;2.15;;
60060;SDS011;45933;51.336;12.612;2022-07-09T13:08:50;2.72;;;1.90;;
60060;SDS011;45933;51.336;12.612;2022-07-09T13:11:15;2.85;;;1.65;;
60060;SDS011;45933;51.336;12.612;2022-07-09T13:13:40;2.22;;;1.98;;
60060;SDS011;45933;51.336;12.612;2022-07-09T13:16:06;2.13;;;1.77;;
60060;SDS011;45933;51.336;12.612;2022-07-09T13:18:31;2.60;;;2.05;;
60060;SDS011;45933;51.336;12.612;2022-07-09T13:20:56;1.70;;;1.50;;
60060;SDS011;45933;51.336;12.612;2022-07-09T13:23:22;2.05;;;1.90;;
60060;SDS011;45933;51.336;12.612;2022-07-09T13:25:47;1.90;;;1.70;;
60060;SDS011;45933;51.336;12.612;2022-07-09T13:28:13;1.70;;;1.60;;
60060;SDS011;45933;51.336;12.612;2022-07-09T13:30:38;2.22;;;1.73;;
60060;SDS011;45933;51.336;12.612;2022-07-09T13:33:03;2.80;;;1.70;;
60060;SDS011;45933;51.336;12.612;2022-07-09T13:35:29;2.63;;;1.60;;
60060;SDS011;45933;51.336;12.612;2022-07-09T13:37:54;2.40;;;1.70;;
60060;SDS011;45933;51.336;12.612;2022-07-09T13:40:20;1.70;;;1.52;;
60060;SDS011;45933;51.336;12.612;2022-07-09T13:42:45;2.28;;;1.80;;
60060;SDS011;45933;51.336;12.612;2022-07-09T13:45:10;2.63;;;1.70;;
60060;SDS011;45933;51.336;12.612;2022-07-09T13:47:36;4.20;;;1.58;;
60060;SDS011;45933;51.336;12.612;2022-07-09T13:50:01;12.55;;;2.00;;
60060;SDS011;45933;51.336;12.612;2022-07-09T13:52:27;4.35;;;1.60;;
60060;SDS011;45933;51.336;12.612;2022-07-09T13:54:52;3.47;;;1.70;;
60060;SDS011;45933;51.336;12.612;2022-07-09T13:57:18;1.75;;;1.65;;
60060;SDS011;45933;51.336;12.612;2022-07-09T13:59:43;4.82;;;1.70;;
60060;SDS011;45933;51.336;12.612;2022-07-09T14:02:08;2.45;;;1.73;;
60060;SDS011;45933;51.336;12.612;2022-07-09T14:04:34;5.10;;;1.63;;
60060;SDS011;45933;51.336;12.612;2022-07-09T14:06:59;2.97;;;1.40;;
60060;SDS011;45933;51.336;12.612;2022-07-09T14:09:24;2.05;;;1.65;;
60060;SDS011;45933;51.336;12.612;2022-07-09T14:11:50;2.05;;;1.65;;
60060;SDS011;45933;51.336;12.612;2022-07-09T14:14:15;2.00;;;1.35;;
60060;SDS011;45933;51.336;12.612;2022-07-09T14:16:40;2.40;;;1.52;;
60060;SDS011;45933;51.336;12.612;2022-07-09T14:19:06;1.52;;;1.42;;
60060;SDS011;45933;51.336;12.612;2022-07-09T14:21:31;1.58;;;1.13;;
60060;SDS011;45933;51.336;12.612;2022-07-09T14:23:57;2.97;;;1.10;;
60060;SDS011;45933;51.336;12.612;2022-07-09T14:26:22;0.85;;;0.85;;
60060;SDS011;45933;51.336;12.612;2022-07-09T14:28:48;1.20;;;1.10;;
60060;SDS011;45933;51.336;12.612;2022-07-09T14:31:14;1.45;;;0.70;;
60060;SDS011;45933;51.336;12.612;2022-07-09T14:33:39;1.55;;;0.80;;
60060;SDS011;45933;51.336;12.612;2022-07-09T14:36:05;1.20;;;0.90;;
60060;SDS011;45933;51.336;12.612;2022-07-09T14:38:30;0.95;;;0.90;;